Brattleboro, VT (05301)

5:53 PM EDT on June 02, 2015 (GMT -0400)
Deer Park | | Change Station
CLOSE
Current Station
Personal Weather Station
Location: Halifax, VT
Elevation: 1677 ft
Nearby Weather Stations

Elev 1677 ft 42.79 °N, 72.73 °W | Updated 14 seconds ago

Overcast
Overcast
49.3 °F
Feels Like 49 °F
N
0.4
Wind Variable Wind from SE
Gusts 2.5 mph

Today
High -- | Low -- °F
--% Chance of Precip.
Yesterday
High -- | Low -- °F
Precip. -- in
5:14 AM 8:23 PM
Full, 100% visible
Pressure 30.16 in
Visibility 10.0 miles
Clouds Overcast 1800 ft
Windchill 49 °F
Dew Point 48 °F
Humidity 96%
Rainfall 0.18 in
Snow Depth Not available.
UV 1.0 out of 12
Pollen .90 out of 12
Air Quality Not available.
Flu Activity Sporadic
METAR KEEN 022135Z AUTO 00000KT 10SM OVC018 11/07 A3016 RMK AO1

More Conditions Fewer Conditions

Pressure 30.16 in
Visibility 10.0 miles
Clouds Overcast 1800 ft
Windchill 49 °F
Dew Point 48 °F
Humidity 96%
Rainfall 0.18 in
Snow Depth Not available.
UV 1.0 out of 12
Pollen .90 out of 12
Air Quality Not available.
Flu Activity Sporadic
METAR KEEN 022135Z AUTO 00000KT 10SM OVC018 11/07 A3016 RMK AO1

More Conditions Fewer Conditions

10-Day Weather Forecast

×

Almanac

Astronomy

Jun. 02, 2015 Rise Set
Actual Time
Civil Twilight
Nautical Twilight
Astronomical Twilight
Moon
Length of Visible Light
Length of Day
Tomorrow will be .
, % of the Moon is Illuminated

Today's Extremes

State Highs State Lows

Community

WunderPhotos

Upload Photos

1,826,032 photos uploaded!

WunderBlogs® & News

Nearby

Air Quality

  Air Quality AQ Index Pollutant
Not available.

Snow Depth

Station Depth Elevation

Earthquake Activity

City Distance Mag. Time & Date
Minimum magnitude displayed is 2.5.

Coastal Water Temperatures

Place Temperature

Stations

Nearby Weather Stations

Station Location Temp. Windchill Dew Point Humidity Wind Precip. Elev Updated Type